GCRRGMML

Guest
Details From GCRR - Lanzarote
To GMML - HASSAN I
Flight Number -
Tags generated
Created
Modified
Stats Distance 118 nm / 219 km
Max Altitude 12,000 ft / 3,658 m
Waypoints 3
Social Downloads 0
Likes 0
Share VATSIM

Download

Looking for another format? Having issues loading an existing format? Contact us
Advertisement - Login to hide

Notes

Basic altitude profile: - Ascent Rate: 2500ft/min - Ascent Speed: 250kts - Cruise Altitude: 35000ft - Cruise Speed: 420kts - Descent Rate: 1500ft/min - Descent Speed: 250kts Options: - Use NATs: yes - Use PACOTS: yes - Use low airways: yes - Use high airways: yes

Route

GCRR FTV GMML

ID Type Via Altitude Latitude Longitude Leg Dist Tot Dist Heading (true) Name
O GCRR APT - 0 ft / 0 m 28.94547˚ -13.60522˚ - 0 nm - Lanzarote
FTV VOR - 12,000 ft / 3,658 m 28.43078˚ -13.86450˚ 33 nm 33 nm 204° / 204° FUERTEVENTURA VOR-DME
O GMML APT - 0 ft / 0 m 27.14365˚ -13.22540˚ 84 nm 118 nm 156° / 156° HASSAN I

Altitude Profile

Advertisement - Login to hide

GCRR

Details ICAO GCRR (ACE)
Name Lanzarote
Region Canary Islands
Timezone Atlantic/Canary (UTC+1.0)
Stats Elevation 0 ft / 0 m (AMSL)
Location 28.945466° -13.605223°
Runways 1
Magnetic Variation 3.926° W

METAR

GCRR 221430Z 10007KT 9999 FEW030 20/15 Q1016

Decode

TAF

TAF GCRR 221400Z 2215/2315 35008KT 9999 FEW030 TX24/2314Z TN14/2305Z TEMPO 2215/2218 13010KT

Decode

Departure Runways

ID Width Length Bearing (true) Bearing (mag) Surface Threshold Offset Overrun Length
03 148 ft / 45 m 7,893 ft / 2,406 m 26.90° 30.83° Asphalt 197 ft / 60 m 197 ft / 60 m
21 148 ft / 45 m 7,893 ft / 2,406 m 206.91° 210.84° Asphalt 197 ft / 60 m 197 ft / 60 m

GMML

Details ICAO GMML (EUN)
Name HASSAN I
Region Morocco
Timezone Africa/El_Aaiun (UTC+0.0)
Stats Elevation 207 ft / 63 m (AMSL)
Location 27.143650° -13.225399°
Runways 2
Magnetic Variation 3.909° W

METAR

GMML 221400Z 34012KT CAVOK 23/11 Q1016 NOSIG

Decode

TAF

TAF TAF GMML 221100Z 2212/2318 34009KT 9999 SCT033

Decode

Destination Runways

ID Width Length Bearing (true) Bearing (mag) Surface Threshold Offset Overrun Length
02 148 ft / 45 m 8,890 ft / 2,710 m 16.42° 20.33° Asphalt 0 ft / 0 m 200 ft / 61 m
04 148 ft / 45 m 8,221 ft / 2,506 m 31.58° 35.49° Asphalt 0 ft / 0 m 0 ft / 0 m
20 148 ft / 45 m 8,890 ft / 2,710 m 196.43° 200.34° Asphalt 0 ft / 0 m 200 ft / 61 m
22 148 ft / 45 m 8,221 ft / 2,506 m 211.59° 215.50° Asphalt 0 ft / 0 m 658 ft / 201 m